Logo AVAMET
Benvolgut visitant, si us plau, ingressa Recuperar contrasenya
AVAMET paisatges

Inforatge Borriana Ajuntament

Dades diàries. Acumulats / Últims 30 dies disponibles

Data Temperatura (°C) Humitat rel. (%) Pressió rel. (hPa) Vent (km/h) Precipitació
Mínima Mitjana Màxima Amplitud
tèrmica
Mínima Mitjana Màxima Mínima Mitjana Màxima Predom. Mitjana Ràfega
màxima
Total
(mm)
Índex-n
Mínima Mitjana Màxima Mínima Mitjana Màxima n
0 a 1
P0 max
mm 5'
Dades mensuals acumulades fins l'últim dia disponible
02/2021 7,3 10,3 16,2 13,4 13,3 17,2 24,4 17,1 31 74 95 1.002 1.021 1.040   5,8 66,0 18,8
Dades anuals acumulades fins l'últim dia disponible
2021 1,9 8,5 16,2 12,1 6,6 16,3 26,4 24,5 31 69 95 1.002 1.020 1.040   6,0 80,5 46,4
Últims 30 dies disponibles
28-02-2021 9,7     11,5     14,8 5,1 75 86 93 1.027 1.028 1.029 SSO 4,9 27,4 5,8 0,30 0,60
27-02-2021 8,1     12,2     17,3 9,2 63 79 87 1.027 1.029 1.032 WNW 4,3 19,3 0,0
26-02-2021 10,3     12,7     14,8 4,5 74 84 95 1.032 1.033 1.035 WNW 2,7 16,1 0,2
25-02-2021 9,8     12,9     16,7 6,9 67 85 94 1.033 1.034 1.036 WNW 3,5 22,5 0,0
24-02-2021 12,1     13,4     16,2 4,1 78 86 92 1.035 1.037 1.040 WNW 3,2 19,3 0,0
23-02-2021 8,6     12,5     16,8 8,2 62 79 91 1.030 1.036 1.040 WNW 6,1 22,5 0,0
22-02-2021 8,7     12,2     15,2 6,5 70 83 92 1.010 1.019 1.030 ENE 8,0 49,9 1,0
21-02-2021 10,2     13,1     15,1 4,9 79 84 87 1.009 1.014 1.021 NNE 13,2 51,5 0,0
20-02-2021 8,7     11,6     15,1 6,4 73 82 87 1.021 1.023 1.024 WNW 6,0 29,0 0,0
19-02-2021 7,3     10,6     13,3 6,0 80 87 92 1.023 1.024 1.026 WNW 3,1 20,9 0,0
18-02-2021 8,4     11,5     14,3 5,9 69 84 90 1.021 1.023 1.025 WNW 3,5 19,3 0,0
17-02-2021 8,1     11,4     14,6 6,5 78 85 90 1.025 1.027 1.029 WNW 3,4 22,5 0,0
16-02-2021 8,7     11,8     14,6 5,9 65 80 88 1.027 1.031 1.036 SE 4,0 22,5 0,0
15-02-2021 9,5     11,6     14,6 5,1 77 88 94 1.036 1.038 1.039 WNW 5,0 24,1 6,6 0,20
14-02-2021 8,7     11,5     15,2 6,5 70 81 94 1.030 1.035 1.039 WNW 6,9 32,2 5,2 0,27 0,40
13-02-2021 11,4     15,1     19,4 8,0 41 64 82 1.022 1.026 1.030 WNW 5,0 24,1 0,0
12-02-2021 12,7     16,7     22,4 9,7 38 62 79 1.017 1.019 1.022 WNW 5,8 43,5 0,0
11-02-2021 10,2     14,1     19,3 9,1 42 62 81 1.019 1.020 1.021 WNW 4,3 16,1 0,0
10-02-2021 11,4     15,8     20,2 8,8 32 50 74 1.004 1.011 1.019 WNW 10,9 56,3 0,0
09-02-2021 11,4     14,0     17,8 6,4 57 65 75 1.005 1.008 1.011 SE 7,4 41,8 0,0
08-02-2021 12,4     14,9     20,2 7,8 36 57 73 1.002 1.005 1.008 WSW 8,2 43,5 0,0
07-02-2021 9,9     13,4     17,3 7,4 33 56 74 1.006 1.007 1.009 WNW 4,3 27,4 0,0
06-02-2021 10,7     14,7     20,1 9,4 43 69 83 1.003 1.005 1.008 WSW 5,6 37,0 0,0
05-02-2021 11,9     12,8     15,1 3,2 74 85 89 1.007 1.012 1.016 ENE 6,4 38,6 0,0
04-02-2021 10,8     12,9     15,8 5,0 72 81 88 1.014 1.016 1.017 ENE 5,0 25,7 0,0
03-02-2021 10,5     13,6     17,6 7,1 59 73 80 1.015 1.016 1.017 WNW 2,6 14,5 0,0
02-02-2021 13,1     17,4     22,1 9,0 46 59 72 1.016 1.017 1.019 S 3,9 29,0 0,0
01-02-2021 16,2     20,4     24,4 8,2 31 43 58 1.008 1.011 1.016 WNW 14,5 66,0 0,0
31-01-2021 13,3     17,4     22,7 9,4 40 50 65 1.008 1.010 1.012 OSO 9,4 49,9 0,0
30-01-2021 12,6     17,1     21,1 8,5 33 54 73 1.007 1.012 1.019 WNW 10,1 70,8 0,0
Últims 13 mesos disponibles
01/2021 1,9 6,8 14,4 10,9 6,6 15,6 26,4 24,5 47 64 88 1.009 1.019 1.030 WNW 6,3 80,5 27,6
12/2020 3,3 8,2 12,6 12,2 14,0 16,8 20,8 17,5 44 63 86 999 1.017 1.031 WNW 5,6 46,7 3,4
11/2020 7,8 12,2 16,3 15,4 15,9 19,4 24,1 16,3 58 80 92 1.009 1.025 1.032 WNW 5,5 56,3 134,6
10/2020 10,5 14,4 18,5 18,6 18,6 23,0 28,2 17,7 44 63 83 1.000 1.020 1.029 WNW 6,0 59,5 7,2
09/2020 14,9 19,1 21,6 23,2 23,3 27,2 31,0 16,1 40 67 80 1.014 1.020 1.026 WNW 6,5 45,1 18,0
08/2020 16,8 22,5 25,5 26,3 25,9 29,7 31,6 14,8 55 72 81 1.007 1.017 1.022 WNW 6,6 38,6 11,8
07/2020 20,1 22,2 24,7 26,0 27,3 29,2 32,3 12,2 51 73 82 1.014 1.019 1.024 E 6,8 38,6 4,0
06/2020 14,5 18,7 21,6 22,6 20,7 25,9 29,7 15,2 40 72 82 1.007 1.017 1.024 WNW 6,8 46,7 38,0
05/2020 12,8 16,7 20,3 20,8 18,1 24,7 32,0 19,2 49 71 80 1.007 1.020 1.031 WNW 6,6 49,9 29,8
04/2020 8,0 12,6 18,1 15,8 15,2 19,6 28,2 20,2 49 78 90 1.008 1.019 1.029 WNW 5,6 46,7 147,8
03/2020 5,8 10,4 14,7 13,9 11,3 17,6 24,9 19,1 43 71 91 1.008 1.020 1.030 WNW 6,9 82,1 107,8
02/2020 6,5 10,0 13,7 14,1 14,2 18,8 25,8 19,3 47 72 87 1.015 1.028 1.036 WNW 4,7 48,3 0,0
01/2020 3,2 7,4 12,6 10,9 10,6 15,5 21,0 17,8 58 75 92 1.021 1.028 1.035 WNW 5,9 72,4 81,4
Tots els anys disponibles
2020 3,2 14,6 25,5 18,3 10,6 22,3 32,3 29,1 40 71 92 999 1.021 1.036 WNW 6,1 82,1 583,8
2019 3,1 14,4 25,2 18,1 11,7 22,2 34,4 31,3 28 66 91 996 1.020 1.037 S 6,6 75,6 317,2
Temperatura (°C)
Humitat relativa (%)
Velocitat del vent i ràfega màxima (km/h)
Direcció del vent (°)
Pressió (hPa)
Precipitació (mm)
Nota sobre les dades: s'avisa a l'usuari de la provisionalitat i no oficialitat d'aquestes dades
Logo AVAMET blanc
Web allotjada a Sollutia
Llicència de Creative CommonsLa web d'AVAMET i els seus continguts estan subjectes a una llicència de
Reconeixement - No Comercial - Compartir igual
Avís legal - Política de privacitat - Política de cookies
NOVES ESTACIONS: Sollana - l'Albufera/Tancat de Milia (Soci),  Barx - la Falaguera (Soci), l'Alqueria d'Asnar (Soci), Barx (Soci), Font de la Figuera - El Carrascal, Sagunt - Casc Urbà, Tous & Casinos - Aj. (Inforatge), Alcoi - Círculo Industrial (Soci), Requena - San Antonio (Soci), Beniatjar (Soci), Elx - Carrús (Soci), Castelló de la Plana - Serradal (Soci), Teulada - El Pla (Soci), Dénia - la Xara (Soci) - - -